createdAt,value
2022-12-06T00:02:11.741Z,4.35
2022-12-06T00:04:38.586Z,4.34
2022-12-06T00:07:05.348Z,4.31
2022-12-06T00:09:32.927Z,4.39
2022-12-06T00:11:59.660Z,4.35
2022-12-06T00:14:27.926Z,4.37
2022-12-06T00:16:54.886Z,4.38
2022-12-06T00:19:23.560Z,4.35
2022-12-06T00:21:50.573Z,4.33
2022-12-06T00:24:19.569Z,4.41
2022-12-06T00:26:47.808Z,4.32
2022-12-06T00:29:17.538Z,4.36
2022-12-06T00:31:44.594Z,4.35
2022-12-06T00:34:11.424Z,4.35
2022-12-06T00:36:39.992Z,4.39
2022-12-06T00:39:09.293Z,4.44
2022-12-06T00:41:36.182Z,4.46
2022-12-06T00:44:03.099Z,4.49
2022-12-06T00:46:31.206Z,4.50
2022-12-06T00:48:59.648Z,4.53
2022-12-06T00:51:28.830Z,4.52
2022-12-06T00:53:55.892Z,4.50
2022-12-06T00:56:23.144Z,4.47
2022-12-06T00:58:49.915Z,4.40
2022-12-06T01:01:21.818Z,4.44
2022-12-06T01:03:53.638Z,4.47
2022-12-06T01:06:23.187Z,4.53
2022-12-06T01:08:50.436Z,4.46
2022-12-06T01:11:17.661Z,4.42
2022-12-06T01:13:44.707Z,4.35
2022-12-06T01:16:16.984Z,4.42
2022-12-06T01:18:45.446Z,4.38
2022-12-06T01:21:18.701Z,4.38
2022-12-06T01:23:46.172Z,4.35
2022-12-06T01:26:17.478Z,4.43
2022-12-06T01:28:44.602Z,4.42
2022-12-06T01:31:11.689Z,4.41
2022-12-06T01:33:38.434Z,4.45
2022-12-06T01:36:05.384Z,4.41
2022-12-06T01:38:32.032Z,4.41
2022-12-06T01:40:58.675Z,4.41
2022-12-06T01:43:40.655Z,4.46
2022-12-06T01:46:38.382Z,4.45
2022-12-06T01:49:17.970Z,4.43
2022-12-06T01:51:49.829Z,4.44
2022-12-06T01:54:17.762Z,4.41
2022-12-06T01:56:44.470Z,4.42
2022-12-06T01:59:12.042Z,4.35
2022-12-06T02:01:39.614Z,4.40
2022-12-06T02:04:07.207Z,4.36
2022-12-06T02:06:34.013Z,4.30
2022-12-06T02:09:03.268Z,4.41
2022-12-06T02:11:34.956Z,4.37
2022-12-06T02:14:04.432Z,4.32
2022-12-06T02:17:00.527Z,4.25
2022-12-06T02:19:53.026Z,4.26
2022-12-06T02:22:31.680Z,4.26
2022-12-06T02:25:17.437Z,4.28
2022-12-06T02:28:21.294Z,4.23
2022-12-06T02:31:19.037Z,4.16
2022-12-06T02:33:49.815Z,4.08
2022-12-06T02:36:31.519Z,4.21
2022-12-06T02:39:04.480Z,4.18
2022-12-06T02:41:35.870Z,4.13
2022-12-06T02:44:07.419Z,4.20
2022-12-06T02:46:38.157Z,4.09
2022-12-06T02:49:06.895Z,4.11
2022-12-06T02:51:35.542Z,4.06
2022-12-06T02:54:05.794Z,4.12
2022-12-06T02:56:33.194Z,4.06
2022-12-06T02:58:59.986Z,4.18
2022-12-06T03:01:35.221Z,4.17
2022-12-06T03:04:12.594Z,4.07
2022-12-06T03:07:15.826Z,4.09
2022-12-06T03:10:13.667Z,4.11
2022-12-06T03:13:28.408Z,4.24
2022-12-06T03:16:01.309Z,4.11
2022-12-06T03:18:38.403Z,4.11
2022-12-06T03:21:08.369Z,4.18
2022-12-06T03:23:39.959Z,4.24
2022-12-06T03:26:10.196Z,4.13
2022-12-06T03:28:38.595Z,4.13
2022-12-06T03:31:11.189Z,4.17
2022-12-06T03:33:42.461Z,4.07
2022-12-06T03:36:11.240Z,3.97
2022-12-06T03:38:43.725Z,3.98
2022-12-06T03:41:12.185Z,3.96
2022-12-06T03:43:38.889Z,3.97
2022-12-06T03:46:18.337Z,4.00
2022-12-06T03:48:49.296Z,3.97
2022-12-06T03:51:20.472Z,4.01
2022-12-06T03:53:49.725Z,4.02
2022-12-06T03:56:16.502Z,3.97
2022-12-06T03:58:43.198Z,4.02
2022-12-06T04:01:09.936Z,4.02
2022-12-06T04:03:36.732Z,4.01
2022-12-06T04:06:04.945Z,3.99
2022-12-06T04:08:31.916Z,4.06
2022-12-06T04:10:58.730Z,3.99
2022-12-06T04:13:26.127Z,4.06
2022-12-06T04:15:56.266Z,3.91
2022-12-06T04:18:23.306Z,3.86
2022-12-06T04:21:18.683Z,3.92
2022-12-06T04:23:47.567Z,3.92
2022-12-06T04:26:16.574Z,3.90
2022-12-06T04:29:02.127Z,3.87
2022-12-06T04:31:47.802Z,3.88
2022-12-06T04:34:33.708Z,3.91
2022-12-06T04:37:19.154Z,3.88
2022-12-06T04:39:45.960Z,4.02
2022-12-06T04:42:31.861Z,4.07
2022-12-06T04:44:58.921Z,4.03
2022-12-06T04:47:25.593Z,3.98
2022-12-06T04:49:52.760Z,3.98
2022-12-06T04:52:19.860Z,4.09
2022-12-06T04:54:47.423Z,4.09
2022-12-06T04:57:15.989Z,4.00
2022-12-06T04:59:43.825Z,3.91
2022-12-06T05:02:14.269Z,3.99
2022-12-06T05:04:41.011Z,3.98
2022-12-06T05:07:07.838Z,4.01
2022-12-06T05:09:34.545Z,3.97
2022-12-06T05:12:01.178Z,3.92
2022-12-06T05:14:27.888Z,3.94
2022-12-06T05:16:54.582Z,3.91
2022-12-06T05:19:21.351Z,3.93
2022-12-06T05:21:48.006Z,3.83
2022-12-06T05:24:14.695Z,3.86
2022-12-06T05:26:41.577Z,3.83
2022-12-06T05:29:08.306Z,3.73
2022-12-06T05:31:35.008Z,3.79
2022-12-06T05:34:01.843Z,3.72
2022-12-06T05:36:28.543Z,3.71
2022-12-06T05:38:56.514Z,3.68
2022-12-06T05:41:24.010Z,3.72
2022-12-06T05:43:50.783Z,3.79
2022-12-06T05:46:17.535Z,3.86
2022-12-06T05:48:44.978Z,3.73
2022-12-06T05:51:11.780Z,3.81
2022-12-06T05:53:38.670Z,3.80
2022-12-06T05:56:07.348Z,3.79
2022-12-06T05:58:34.012Z,3.78
2022-12-06T06:01:00.788Z,3.78
2022-12-06T06:03:27.597Z,3.89
2022-12-06T06:05:57.579Z,3.81
2022-12-06T06:08:24.318Z,3.78
2022-12-06T06:10:51.001Z,3.73
2022-12-06T06:13:17.735Z,3.69
2022-12-06T06:15:44.546Z,3.77
2022-12-06T06:18:11.262Z,3.71
2022-12-06T06:20:37.976Z,3.68
2022-12-06T06:23:04.673Z,3.61
2022-12-06T06:25:31.295Z,3.63
2022-12-06T06:27:58.002Z,3.65
2022-12-06T06:30:24.680Z,3.63
2022-12-06T06:32:51.385Z,3.63
2022-12-06T06:35:18.149Z,3.56
2022-12-06T06:37:44.834Z,3.59
2022-12-06T06:40:11.783Z,3.54
2022-12-06T06:42:38.906Z,3.58
2022-12-06T06:45:06.342Z,3.56
2022-12-06T06:47:33.201Z,3.59
2022-12-06T06:50:00.261Z,3.60
2022-12-06T06:52:27.243Z,3.65
2022-12-06T06:54:53.977Z,3.73
2022-12-06T06:57:20.654Z,3.77
2022-12-06T06:59:47.554Z,3.73
2022-12-06T07:02:16.962Z,3.78
2022-12-06T07:04:44.798Z,3.75
2022-12-06T07:07:15.389Z,3.78
2022-12-06T07:09:46.167Z,3.64
2022-12-06T07:12:13.758Z,3.68
2022-12-06T07:14:40.443Z,3.65
2022-12-06T07:17:07.252Z,3.64
2022-12-06T07:19:33.994Z,3.63
2022-12-06T07:22:00.680Z,3.61
2022-12-06T07:24:27.352Z,3.64
2022-12-06T07:26:56.912Z,3.60
2022-12-06T07:29:23.594Z,3.67
2022-12-06T07:31:50.244Z,3.70
2022-12-06T07:34:16.924Z,3.62
2022-12-06T07:36:43.585Z,3.61
2022-12-06T07:39:14.476Z,3.60
2022-12-06T07:42:00.308Z,3.60
2022-12-06T07:44:45.733Z,3.59
2022-12-06T07:47:12.424Z,3.74
2022-12-06T07:49:39.352Z,3.77
2022-12-06T07:52:06.060Z,3.81
2022-12-06T07:54:32.721Z,3.81
2022-12-06T07:56:59.422Z,3.79
2022-12-06T07:59:26.421Z,3.68
2022-12-06T08:01:53.822Z,3.77
2022-12-06T08:04:20.678Z,3.82
2022-12-06T08:06:47.387Z,3.83
2022-12-06T08:09:14.191Z,3.81
2022-12-06T08:11:40.871Z,3.78
2022-12-06T08:14:07.721Z,3.83
2022-12-06T08:16:34.442Z,3.86
2022-12-06T08:19:02.292Z,3.82
2022-12-06T08:21:29.150Z,3.82
2022-12-06T08:23:55.886Z,3.73
2022-12-06T08:26:23.011Z,3.69
2022-12-06T08:28:50.248Z,3.78
2022-12-06T08:31:19.809Z,3.85
2022-12-06T08:33:47.030Z,3.83
2022-12-06T08:36:17.051Z,3.79
2022-12-06T08:38:44.576Z,3.86
2022-12-06T08:41:30.363Z,3.85
2022-12-06T08:43:58.740Z,3.89
2022-12-06T08:46:25.745Z,3.84
2022-12-06T08:48:52.803Z,3.91
2022-12-06T08:51:19.566Z,3.90
2022-12-06T08:53:46.322Z,3.88
2022-12-06T08:56:13.107Z,3.95
2022-12-06T08:58:39.802Z,3.98
2022-12-06T09:01:15.272Z,4.02
2022-12-06T09:03:42.055Z,3.93
2022-12-06T09:06:09.296Z,3.94
2022-12-06T09:08:36.581Z,3.96
2022-12-06T09:11:03.728Z,3.74
2022-12-06T09:13:30.514Z,3.84
2022-12-06T09:15:57.306Z,3.90
2022-12-06T09:18:24.104Z,3.90
2022-12-06T09:20:50.887Z,3.92
2022-12-06T09:23:17.582Z,3.90
2022-12-06T09:25:44.320Z,3.86
2022-12-06T09:28:11.621Z,3.88
2022-12-06T09:30:38.324Z,3.88
2022-12-06T09:33:05.065Z,3.83
2022-12-06T09:35:32.225Z,3.77
2022-12-06T09:37:59.332Z,3.85
2022-12-06T09:40:43.329Z,3.79
2022-12-06T09:43:33.571Z,3.84
2022-12-06T09:46:19.289Z,3.94
2022-12-06T09:49:32.513Z,3.92
2022-12-06T09:52:37.455Z,3.98
2022-12-06T09:55:42.964Z,3.89
2022-12-06T09:58:37.415Z,3.92
2022-12-06T10:01:36.563Z,3.90
2022-12-06T10:04:39.849Z,3.90
2022-12-06T10:08:02.002Z,3.83
2022-12-06T10:10:56.438Z,3.87
2022-12-06T10:13:45.889Z,3.90
2022-12-06T10:16:26.532Z,3.81
2022-12-06T10:19:18.507Z,3.74
2022-12-06T10:22:17.095Z,3.83
2022-12-06T10:25:04.028Z,3.90
2022-12-06T10:27:37.826Z,3.95
2022-12-06T10:30:10.898Z,3.93
2022-12-06T10:33:05.848Z,3.84
2022-12-06T10:35:54.253Z,3.87
2022-12-06T10:38:54.323Z,3.90
2022-12-06T10:41:26.813Z,3.88
2022-12-06T10:43:58.816Z,3.84
2022-12-06T10:47:04.290Z,3.85
2022-12-06T10:49:54.391Z,3.88
2022-12-06T10:53:02.399Z,3.95
2022-12-06T10:55:34.610Z,3.85
2022-12-06T10:58:30.933Z,3.93
2022-12-06T11:01:00.434Z,3.91
2022-12-06T11:03:38.517Z,3.84
2022-12-06T11:06:31.381Z,3.94
2022-12-06T11:09:05.596Z,3.86
2022-12-06T11:11:33.926Z,3.88
2022-12-06T11:14:05.002Z,3.89
2022-12-06T11:16:39.410Z,3.92
2022-12-06T11:19:24.013Z,4.01
2022-12-06T11:21:54.560Z,3.94
2022-12-06T11:24:32.098Z,4.01
2022-12-06T11:27:04.905Z,3.95
2022-12-06T11:29:32.101Z,4.04
2022-12-06T11:32:04.094Z,4.04
2022-12-06T11:34:46.657Z,3.94
2022-12-06T11:37:17.179Z,3.98
2022-12-06T11:39:44.090Z,4.09
2022-12-06T11:42:13.898Z,3.98
2022-12-06T11:44:49.455Z,4.06
2022-12-06T11:47:19.586Z,4.16
2022-12-06T11:49:47.175Z,4.08
2022-12-06T11:52:18.929Z,4.10
2022-12-06T11:54:52.931Z,4.22
2022-12-06T11:57:27.283Z,4.13
2022-12-06T12:00:15.338Z,4.11
2022-12-06T12:02:44.367Z,4.14
2022-12-06T12:05:21.514Z,4.12
2022-12-06T12:08:00.903Z,4.13
2022-12-06T12:10:42.101Z,4.17
2022-12-06T12:13:39.652Z,4.13
2022-12-06T12:16:24.396Z,4.08
2022-12-06T12:18:59.432Z,4.18
2022-12-06T12:21:41.266Z,4.16
2022-12-06T12:27:44.316Z,4.14
2022-12-06T12:30:33.233Z,4.33
2022-12-06T12:33:11.072Z,4.33
2022-12-06T12:35:41.342Z,4.38
2022-12-06T12:38:17.539Z,4.37
2022-12-06T12:40:47.414Z,4.26
2022-12-06T12:43:23.280Z,4.21
2022-12-06T12:46:16.183Z,4.32
2022-12-06T12:48:45.138Z,4.33
2022-12-06T12:51:32.327Z,4.27
2022-12-06T12:54:05.065Z,4.28
2022-12-06T12:56:35.234Z,4.33
2022-12-06T12:59:04.473Z,4.34
2022-12-06T13:01:37.652Z,4.45
2022-12-06T13:04:12.020Z,4.33
2022-12-06T13:06:47.596Z,4.37
2022-12-06T13:09:28.763Z,4.36
2022-12-06T13:12:02.278Z,4.41
2022-12-06T13:14:30.316Z,4.24
2022-12-06T13:17:01.387Z,4.16
2022-12-06T13:19:39.091Z,4.21
2022-12-06T13:22:07.151Z,4.28
2022-12-06T13:24:34.839Z,4.36
2022-12-06T13:27:04.303Z,4.19
2022-12-06T13:29:59.529Z,4.22
2022-12-06T13:32:34.025Z,4.33
2022-12-06T13:35:05.314Z,4.39
2022-12-06T13:38:02.304Z,4.33
2022-12-06T13:40:47.722Z,4.38
2022-12-06T13:43:46.580Z,4.32
2022-12-06T13:46:22.313Z,4.34
2022-12-06T13:48:53.359Z,4.22
2022-12-06T13:51:52.469Z,4.23
2022-12-06T13:54:22.457Z,4.21
2022-12-06T13:56:49.122Z,4.37
2022-12-06T13:59:38.092Z,4.35
2022-12-06T14:02:41.751Z,4.29
2022-12-06T14:05:46.829Z,4.36
2022-12-06T14:08:13.805Z,4.26
2022-12-06T14:10:40.661Z,4.23
2022-12-06T14:13:07.366Z,4.27
2022-12-06T14:15:38.789Z,4.38
2022-12-06T14:18:12.467Z,4.31
2022-12-06T14:20:41.783Z,4.54
2022-12-06T14:23:48.091Z,4.53
2022-12-06T14:26:25.645Z,4.44
2022-12-06T14:28:53.901Z,4.35
2022-12-06T14:31:38.432Z,4.42
2022-12-06T14:34:05.818Z,4.35
2022-12-06T14:36:35.076Z,4.31
2022-12-06T14:39:23.438Z,4.38
2022-12-06T14:42:14.874Z,4.44
2022-12-06T14:44:47.480Z,4.33
2022-12-06T14:47:16.079Z,4.36
2022-12-06T14:50:01.710Z,4.37
2022-12-06T14:52:31.294Z,4.42
2022-12-06T14:55:28.095Z,4.44
2022-12-06T14:57:57.523Z,4.37
2022-12-06T15:00:36.514Z,4.39
2022-12-06T15:03:32.771Z,4.25
2022-12-06T15:06:29.918Z,4.36
2022-12-06T15:09:14.215Z,4.47
2022-12-06T15:12:01.603Z,4.52
2022-12-06T15:14:30.927Z,4.52
2022-12-06T15:17:19.622Z,4.40
2022-12-06T15:19:50.590Z,4.32
2022-12-06T15:22:29.078Z,4.38
2022-12-06T15:24:57.929Z,4.41
2022-12-06T15:27:27.187Z,4.50
2022-12-06T15:29:54.172Z,4.56
2022-12-06T15:32:23.427Z,4.52
2022-12-06T15:34:50.130Z,4.53
2022-12-06T15:40:04.741Z,4.54
2022-12-06T15:42:31.435Z,4.46
2022-12-06T15:44:58.265Z,4.61
2022-12-06T15:47:24.891Z,4.61
2022-12-06T15:49:53.432Z,4.54
2022-12-06T15:52:24.955Z,4.61
2022-12-06T15:54:51.794Z,4.58
2022-12-06T15:57:18.483Z,4.59
2022-12-06T15:59:45.133Z,4.62
2022-12-06T16:02:15.680Z,4.64
2022-12-06T16:04:43.513Z,4.70
2022-12-06T16:07:10.902Z,4.62
2022-12-06T16:09:37.724Z,4.61
2022-12-06T16:12:04.701Z,4.62
2022-12-06T16:14:31.376Z,4.60
2022-12-06T16:16:58.080Z,4.61
2022-12-06T16:19:24.793Z,4.66
2022-12-06T16:21:56.517Z,4.82
2022-12-06T16:24:23.252Z,4.77
2022-12-06T16:26:49.965Z,4.62
2022-12-06T16:29:20.810Z,4.68
2022-12-06T16:31:48.357Z,4.69
2022-12-06T16:34:15.740Z,4.69
2022-12-06T16:37:03.529Z,4.55
2022-12-06T16:39:31.652Z,4.58
2022-12-06T16:41:58.312Z,4.53
2022-12-06T16:44:25.176Z,4.60
2022-12-06T16:46:52.265Z,4.59
2022-12-06T16:52:13.552Z,4.58
2022-12-06T16:54:41.826Z,4.64
2022-12-06T16:57:10.248Z,4.72
2022-12-06T16:59:37.077Z,4.75
2022-12-06T17:02:08.493Z,4.75
2022-12-06T17:04:38.365Z,4.69
2022-12-06T17:07:05.014Z,4.52
2022-12-06T17:09:31.918Z,4.67
2022-12-06T17:12:06.964Z,4.63
2022-12-06T17:14:36.147Z,4.66
2022-12-06T17:17:04.345Z,4.58
2022-12-06T17:19:32.081Z,4.60
2022-12-06T17:21:59.553Z,4.56
2022-12-06T17:24:26.589Z,4.62
2022-12-06T17:26:56.248Z,4.63
2022-12-06T17:29:23.889Z,4.58
2022-12-06T17:31:52.950Z,4.63
2022-12-06T17:34:20.298Z,4.64
2022-12-06T17:36:47.573Z,4.61
2022-12-06T17:39:16.993Z,4.58
2022-12-06T17:42:02.287Z,4.51
2022-12-06T17:44:29.088Z,4.52
2022-12-06T17:46:56.198Z,4.55
2022-12-06T17:49:24.540Z,4.45
2022-12-06T17:51:51.706Z,4.63
2022-12-06T17:54:22.314Z,4.55
2022-12-06T17:56:50.789Z,4.56
2022-12-06T17:59:20.400Z,4.56
2022-12-06T18:04:34.345Z,4.55
2022-12-06T18:07:00.956Z,4.53
2022-12-06T18:09:27.820Z,4.46
2022-12-06T18:11:55.832Z,4.52
2022-12-06T18:34:44.802Z,4.38
2022-12-06T18:37:11.784Z,4.44
2022-12-06T18:39:38.493Z,4.51
2022-12-06T18:42:05.364Z,4.46
2022-12-06T18:44:32.221Z,4.42
2022-12-06T18:46:58.930Z,4.43
2022-12-06T18:49:25.592Z,4.41
2022-12-06T18:51:52.444Z,4.32
2022-12-06T18:54:19.336Z,4.33
2022-12-06T18:56:46.025Z,4.32
2022-12-06T18:59:12.839Z,4.34
2022-12-06T19:01:41.138Z,4.41
2022-12-06T19:04:09.632Z,4.36
2022-12-06T19:06:38.057Z,4.34
2022-12-06T19:09:07.572Z,4.34
2022-12-06T19:11:42.934Z,4.39
2022-12-06T19:14:10.587Z,4.24
2022-12-06T19:16:45.586Z,4.32
2022-12-06T19:19:20.148Z,4.25
2022-12-06T19:21:47.521Z,4.24
2022-12-06T19:24:16.870Z,4.41
2022-12-06T19:26:44.300Z,4.41
2022-12-06T19:29:11.097Z,4.42
2022-12-06T19:31:37.908Z,4.25
2022-12-06T19:34:04.669Z,4.26
2022-12-06T19:36:31.763Z,4.18
2022-12-06T19:39:00.391Z,4.04
2022-12-06T19:41:27.245Z,3.96
2022-12-06T19:44:12.525Z,3.92
2022-12-06T19:46:43.017Z,3.91
2022-12-06T19:49:10.513Z,3.81
2022-12-06T19:51:42.878Z,3.88
2022-12-06T19:54:11.078Z,3.84
2022-12-06T19:56:39.412Z,3.63
2022-12-06T19:59:11.870Z,3.67
2022-12-06T20:01:44.066Z,3.65
2022-12-06T20:04:23.027Z,3.59
2022-12-06T20:06:50.696Z,3.56
2022-12-06T20:09:19.226Z,3.53
2022-12-06T20:12:01.530Z,3.43
2022-12-06T20:14:39.622Z,3.43
2022-12-06T20:17:18.791Z,3.33
2022-12-06T20:19:52.060Z,3.29
2022-12-06T20:22:19.990Z,3.21
2022-12-06T20:24:46.864Z,3.30
2022-12-06T20:27:14.134Z,3.31
2022-12-06T20:29:41.516Z,3.32
2022-12-06T20:32:08.983Z,3.29
2022-12-06T20:34:35.741Z,3.20
2022-12-06T20:37:04.185Z,3.19
2022-12-06T20:39:33.207Z,3.22
2022-12-06T20:42:00.241Z,3.33
2022-12-06T20:44:27.167Z,3.35
2022-12-06T20:46:54.428Z,3.35
2022-12-06T20:49:21.256Z,3.38
2022-12-06T20:51:52.611Z,3.35
2022-12-06T20:54:19.713Z,3.34
2022-12-06T20:56:47.285Z,3.40
2022-12-06T20:59:14.254Z,3.39
2022-12-06T21:01:41.769Z,3.45
2022-12-06T21:04:10.362Z,3.44
2022-12-06T21:06:37.114Z,3.49
2022-12-06T21:09:03.977Z,3.47
2022-12-06T21:11:30.996Z,3.45
2022-12-06T21:13:58.114Z,3.44
2022-12-06T21:16:30.701Z,3.56
2022-12-06T21:19:00.949Z,3.57
2022-12-06T21:21:34.580Z,3.58
2022-12-06T21:24:07.329Z,3.57
2022-12-06T21:26:34.615Z,3.55
2022-12-06T21:29:01.384Z,3.56
2022-12-06T21:31:29.698Z,3.57
2022-12-06T21:33:57.317Z,3.56
2022-12-06T21:36:24.734Z,3.49
2022-12-06T21:38:52.025Z,3.41
2022-12-06T21:41:19.039Z,3.52
2022-12-06T21:43:45.764Z,3.51
2022-12-06T21:46:15.129Z,3.56
2022-12-06T21:48:42.782Z,3.61
2022-12-06T21:51:11.509Z,3.64
2022-12-06T21:53:38.701Z,3.64
2022-12-06T21:56:07.798Z,3.56
2022-12-06T21:58:35.458Z,3.57
2022-12-06T22:01:10.654Z,3.63
2022-12-06T22:03:37.679Z,3.64
2022-12-06T22:06:12.493Z,3.51
2022-12-06T22:08:40.630Z,3.65
2022-12-06T22:11:11.983Z,3.65
2022-12-06T22:13:40.028Z,3.60
2022-12-06T22:16:08.934Z,3.64
2022-12-06T22:18:42.691Z,3.60
2022-12-06T22:21:20.471Z,3.62
2022-12-06T22:23:47.884Z,3.53
2022-12-06T22:26:18.077Z,3.58
2022-12-06T22:28:45.331Z,3.46
2022-12-06T22:31:19.290Z,3.53
2022-12-06T22:33:46.522Z,3.54
2022-12-06T22:36:14.052Z,3.50
2022-12-06T22:38:41.156Z,3.52
2022-12-06T22:41:09.126Z,3.54
2022-12-06T22:43:36.091Z,3.46
2022-12-06T22:46:05.051Z,3.62
2022-12-06T22:48:31.988Z,3.37
2022-12-06T22:51:26.262Z,3.47
2022-12-06T22:53:55.568Z,3.48
2022-12-06T22:56:22.835Z,3.47
2022-12-06T22:58:49.711Z,3.55
2022-12-06T23:01:19.078Z,3.55
2022-12-06T23:03:47.308Z,3.51
2022-12-06T23:06:20.178Z,3.43
2022-12-06T23:08:47.038Z,3.40
2022-12-06T23:11:20.048Z,3.51
2022-12-06T23:13:46.853Z,3.49
2022-12-06T23:16:21.948Z,3.51
2022-12-06T23:18:49.021Z,3.56
2022-12-06T23:21:27.153Z,3.68
2022-12-06T23:23:55.961Z,3.70
2022-12-06T23:26:28.045Z,3.69
2022-12-06T23:28:54.737Z,3.64
2022-12-06T23:31:24.061Z,3.63
2022-12-06T23:33:56.430Z,3.63
2022-12-06T23:36:32.632Z,3.69
2022-12-06T23:38:59.396Z,3.70
2022-12-06T23:41:28.551Z,3.68
2022-12-06T23:43:56.043Z,3.68
2022-12-06T23:46:25.299Z,3.67
2022-12-06T23:48:52.458Z,3.76
2022-12-06T23:51:22.451Z,3.68
2022-12-06T23:53:54.453Z,3.60
2022-12-06T23:56:21.939Z,3.66
2022-12-06T23:58:50.670Z,3.70
